Terminal Aerodrome Forecast
Issued by NWS

Home | Current Version | Previous Version | Text Only | Print | Product List | Glossary On
Versions: 1 2 3 4 5 6 7 8 9 10 11 12 13 14
717
FTUS42 KTAE 271120
TAFABY
TAF
KABY 271120Z 2712/2812 18011KT P6SM BKN015
     FM271500 21015G25KT P6SM SCT025 OVC050
     FM271800 20018G25KT P6SM VCTS BKN025CB
     FM280300 21009KT P6SM OVC015=

USA.gov is the U.S. government's official web portal to all federal, state and local government web resources and services.